createdAt,value
2023-01-11T00:00:14.119Z,50.42
2023-01-11T00:03:21.787Z,50.42
2023-01-11T00:06:27.850Z,50.44
2023-01-11T00:09:33.737Z,50.55
2023-01-11T00:12:39.813Z,50.60
2023-01-11T00:15:47.415Z,50.67
2023-01-11T00:18:53.667Z,50.67
2023-01-11T00:21:59.772Z,50.74
2023-01-11T00:25:05.128Z,50.39
2023-01-11T00:28:10.457Z,50.39
2023-01-11T00:31:16.117Z,50.45
2023-01-11T00:34:21.877Z,50.51
2023-01-11T00:37:28.503Z,50.51
2023-01-11T00:40:34.849Z,50.76
2023-01-11T00:43:57.820Z,50.76
2023-01-11T00:47:22.432Z,50.68
2023-01-11T00:50:29.031Z,50.58
2023-01-11T00:53:34.452Z,50.73
2023-01-11T00:56:40.983Z,51.02
2023-01-11T00:59:47.837Z,51.02
2023-01-11T01:02:53.785Z,50.94
2023-01-11T01:05:59.565Z,50.94
2023-01-11T01:09:05.166Z,50.72
2023-01-11T01:12:10.141Z,50.83
2023-01-11T01:15:16.268Z,50.66
2023-01-11T01:18:21.369Z,50.88
2023-01-11T01:21:27.214Z,50.70
2023-01-11T01:24:34.891Z,50.95
2023-01-11T01:27:42.553Z,50.95
2023-01-11T01:30:52.020Z,50.95
2023-01-11T01:33:58.160Z,50.97
2023-01-11T01:37:05.918Z,50.95
2023-01-11T01:40:11.500Z,50.73
2023-01-11T01:43:16.919Z,50.83
2023-01-11T01:46:23.004Z,50.74
2023-01-11T01:49:30.130Z,50.91
2023-01-11T01:52:35.865Z,51.02
2023-01-11T01:55:45.871Z,51.04
2023-01-11T01:58:58.506Z,51.17
2023-01-11T02:02:04.977Z,51.15
2023-01-11T02:05:09.975Z,51.24
2023-01-11T02:08:17.128Z,51.33
2023-01-11T02:11:37.280Z,51.42
2023-01-11T02:14:43.208Z,51.45
2023-01-11T02:17:50.435Z,51.45
2023-01-11T02:21:21.325Z,51.36
2023-01-11T02:25:17.053Z,51.28
2023-01-11T02:28:37.451Z,51.27
2023-01-11T02:31:58.467Z,51.34
2023-01-11T02:35:19.309Z,51.49
2023-01-11T02:38:42.446Z,51.60
2023-01-11T02:42:30.341Z,51.53
2023-01-11T02:45:52.626Z,51.54
2023-01-11T02:49:14.865Z,51.58
2023-01-11T02:52:27.856Z,51.59
2023-01-11T02:55:37.687Z,51.70
2023-01-11T02:58:47.056Z,51.75
2023-01-11T03:02:05.225Z,51.76
2023-01-11T03:05:11.613Z,51.71
2023-01-11T03:08:29.421Z,51.78
2023-01-11T03:12:15.886Z,51.67
2023-01-11T03:15:38.459Z,51.68
2023-01-11T03:19:11.069Z,51.77
2023-01-11T03:22:57.697Z,51.88
2023-01-11T03:26:39.231Z,51.79
2023-01-11T03:29:49.457Z,51.87
2023-01-11T03:33:02.939Z,51.93
2023-01-11T03:36:19.053Z,51.85
2023-01-11T03:39:42.112Z,51.78
2023-01-11T03:42:49.691Z,51.89
2023-01-11T03:46:16.250Z,51.93
2023-01-11T03:49:36.339Z,51.94
2023-01-11T03:52:48.242Z,51.94
2023-01-11T03:55:55.783Z,51.97
2023-01-11T03:59:01.328Z,51.94
2023-01-11T04:02:09.170Z,51.99
2023-01-11T04:05:17.335Z,52.02
2023-01-11T04:08:25.572Z,52.08
2023-01-11T04:11:32.419Z,52.11
2023-01-11T04:14:37.865Z,52.10
2023-01-11T04:17:45.430Z,52.12
2023-01-11T04:20:52.899Z,52.18
2023-01-11T04:23:59.577Z,52.12
2023-01-11T04:27:05.520Z,52.09
2023-01-11T04:30:11.912Z,52.18
2023-01-11T04:33:18.886Z,52.21
2023-01-11T04:36:25.446Z,52.21
2023-01-11T04:39:31.491Z,52.28
2023-01-11T04:42:38.340Z,52.26
2023-01-11T04:45:46.194Z,52.38
2023-01-11T04:48:52.664Z,52.43
2023-01-11T04:51:58.365Z,52.49
2023-01-11T04:55:16.671Z,52.42
2023-01-11T04:58:22.647Z,52.42
2023-01-11T05:01:33.010Z,52.51
2023-01-11T05:04:39.479Z,52.49
2023-01-11T05:07:47.558Z,52.45
2023-01-11T05:10:54.031Z,52.52
2023-01-11T05:14:00.554Z,52.56
2023-01-11T05:17:07.219Z,52.53
2023-01-11T05:20:13.695Z,52.46
2023-01-11T05:23:20.968Z,52.61
2023-01-11T05:26:32.663Z,52.68
2023-01-11T05:29:40.536Z,52.67
2023-01-11T05:32:47.119Z,52.56
2023-01-11T05:35:54.510Z,52.64
2023-01-11T05:39:02.780Z,52.65
2023-01-11T05:42:09.183Z,52.68
2023-01-11T05:45:33.160Z,52.68
2023-01-11T05:48:39.402Z,52.69
2023-01-11T05:51:47.232Z,52.69
2023-01-11T05:54:53.096Z,52.77
2023-01-11T05:58:00.945Z,52.83
2023-01-11T06:01:10.985Z,52.90
2023-01-11T06:04:17.603Z,52.79
2023-01-11T06:07:26.570Z,52.81
2023-01-11T06:10:33.219Z,52.77
2023-01-11T06:13:40.514Z,52.81
2023-01-11T06:16:47.749Z,52.84
2023-01-11T06:19:54.973Z,52.98
2023-01-11T06:23:00.149Z,52.98
2023-01-11T06:26:06.214Z,52.88
2023-01-11T06:29:14.717Z,52.93
2023-01-11T06:32:20.820Z,52.91
2023-01-11T06:35:26.256Z,52.94
2023-01-11T06:38:34.328Z,53.10
2023-01-11T06:41:44.601Z,53.10
2023-01-11T06:44:58.829Z,52.98
2023-01-11T06:48:13.781Z,52.86
2023-01-11T06:51:21.563Z,52.96
2023-01-11T06:54:29.324Z,53.05
2023-01-11T06:57:37.364Z,53.16
2023-01-11T07:00:44.452Z,53.04
2023-01-11T07:03:52.098Z,53.05
2023-01-11T07:07:00.221Z,53.02
2023-01-11T07:10:08.943Z,53.04
2023-01-11T07:13:13.946Z,53.13
2023-01-11T07:16:20.232Z,53.06
2023-01-11T07:19:26.088Z,53.10
2023-01-11T07:22:35.057Z,53.16
2023-01-11T07:25:44.308Z,53.14
2023-01-11T07:28:50.343Z,53.11
2023-01-11T07:31:57.672Z,53.13
2023-01-11T07:35:03.386Z,53.14
2023-01-11T07:38:09.641Z,53.30
2023-01-11T07:41:34.093Z,53.02
2023-01-11T07:44:42.542Z,53.11
2023-01-11T07:47:52.877Z,53.09
2023-01-11T07:50:59.340Z,52.90
2023-01-11T07:54:08.663Z,53.24
2023-01-11T07:57:30.526Z,53.33
2023-01-11T08:00:37.320Z,53.50
2023-01-11T08:03:42.354Z,53.43
2023-01-11T08:06:48.283Z,53.57
2023-01-11T08:09:54.261Z,53.53
2023-01-11T08:13:20.820Z,53.54
2023-01-11T08:16:27.765Z,53.39
2023-01-11T08:19:33.832Z,53.48
2023-01-11T08:22:39.963Z,53.35
2023-01-11T08:25:48.519Z,53.31
2023-01-11T08:28:55.942Z,53.19
2023-01-11T08:32:05.552Z,53.24
2023-01-11T08:35:13.533Z,53.15
2023-01-11T08:38:27.040Z,53.33
2023-01-11T08:41:35.534Z,53.46
2023-01-11T08:44:41.196Z,53.45
2023-01-11T08:47:51.765Z,53.42
2023-01-11T08:51:02.643Z,53.48
2023-01-11T08:54:10.044Z,53.59
2023-01-11T08:57:16.471Z,53.45
2023-01-11T09:00:24.023Z,53.48
2023-01-11T09:03:30.404Z,53.58
2023-01-11T09:06:39.050Z,53.62
2023-01-11T09:09:46.621Z,53.53
2023-01-11T09:12:52.823Z,53.57
2023-01-11T09:15:59.306Z,53.79
2023-01-11T09:19:04.925Z,53.84
2023-01-11T09:22:10.826Z,53.92
2023-01-11T09:25:18.651Z,53.78
2023-01-11T09:28:24.204Z,53.54
2023-01-11T09:31:31.093Z,53.50
2023-01-11T09:34:40.089Z,53.73
2023-01-11T09:37:48.823Z,53.91
2023-01-11T09:41:16.173Z,53.89
2023-01-11T09:44:27.803Z,54.06
2023-01-11T09:47:52.864Z,54.00
2023-01-11T09:51:02.755Z,53.89
2023-01-11T09:54:10.390Z,54.05
2023-01-11T09:57:26.142Z,53.93
2023-01-11T10:01:08.577Z,54.01
2023-01-11T10:04:48.664Z,53.80
2023-01-11T10:18:32.763Z,54.22
2023-01-11T10:19:18.859Z,54.47
2023-01-11T10:22:13.020Z,54.41
2023-01-11T10:25:38.564Z,54.18
2023-01-11T10:28:59.809Z,54.09
2023-01-11T10:32:17.198Z,54.07
2023-01-11T10:35:38.975Z,53.91
2023-01-11T10:39:27.065Z,54.03
2023-01-11T10:42:36.854Z,54.01
2023-01-11T10:46:02.129Z,53.95
2023-01-11T10:49:16.791Z,54.07
2023-01-11T10:52:57.421Z,53.97
2023-01-11T10:56:42.499Z,53.80
2023-01-11T11:00:25.399Z,53.81
2023-01-11T11:04:04.469Z,53.98
2023-01-11T11:07:58.808Z,54.03
2023-01-11T11:11:15.883Z,54.14
2023-01-11T11:14:41.403Z,54.50
2023-01-11T11:17:50.612Z,54.44
2023-01-11T11:20:59.385Z,54.19
2023-01-11T11:24:16.067Z,54.13
2023-01-11T11:27:47.755Z,54.09
2023-01-11T11:30:57.963Z,54.24
2023-01-11T11:34:05.290Z,54.38
2023-01-11T11:37:10.637Z,54.39
2023-01-11T11:40:16.781Z,54.46
2023-01-11T11:43:39.904Z,54.54
2023-01-11T11:46:45.651Z,54.28
2023-01-11T11:49:53.562Z,54.20
2023-01-11T11:53:01.632Z,54.26
2023-01-11T11:56:08.201Z,54.22
2023-01-11T11:59:16.635Z,54.33
2023-01-11T12:02:37.308Z,54.31
2023-01-11T12:05:43.376Z,54.26
2023-01-11T12:08:49.433Z,54.29
2023-01-11T12:11:55.436Z,54.28
2023-01-11T12:15:33.892Z,54.45
2023-01-11T12:18:53.993Z,54.38
2023-01-11T12:21:59.259Z,54.29
2023-01-11T12:25:36.167Z,54.41
2023-01-11T12:29:08.697Z,54.52
2023-01-11T12:32:44.419Z,54.63
2023-01-11T12:36:09.710Z,54.42
2023-01-11T12:39:31.525Z,54.55
2023-01-11T12:43:32.045Z,54.52
2023-01-11T12:47:30.680Z,54.50
2023-01-11T12:50:52.867Z,54.52
2023-01-11T12:54:16.121Z,54.63
2023-01-11T12:57:39.321Z,54.67
2023-01-11T13:01:00.628Z,54.52
2023-01-11T13:04:33.155Z,54.63
2023-01-11T13:08:05.200Z,54.72
2023-01-11T13:11:45.576Z,54.72
2023-01-11T13:15:15.282Z,54.42
2023-01-11T13:18:42.955Z,54.46
2023-01-11T13:21:59.475Z,54.60
2023-01-11T13:25:06.717Z,54.82
2023-01-11T13:28:20.114Z,54.86
2023-01-11T13:31:25.397Z,54.65
2023-01-11T13:35:02.135Z,54.57
2023-01-11T13:38:22.644Z,54.56
2023-01-11T13:41:38.531Z,54.45
2023-01-11T13:44:49.045Z,54.24
2023-01-11T13:48:10.006Z,54.13
2023-01-11T13:51:55.359Z,54.13
2023-01-11T13:55:26.128Z,54.27
2023-01-11T13:58:37.074Z,54.40
2023-01-11T14:02:10.969Z,54.43
2023-01-11T14:05:28.984Z,54.61
2023-01-11T14:08:57.157Z,54.52
2023-01-11T14:12:55.734Z,54.68
2023-01-11T14:16:16.874Z,54.70
2023-01-11T14:19:44.568Z,54.62
2023-01-11T14:23:02.893Z,54.63
2023-01-11T14:26:35.039Z,54.53
2023-01-11T14:30:13.722Z,54.63
2023-01-11T14:33:46.230Z,54.60
2023-01-11T14:37:18.240Z,54.62
2023-01-11T14:40:54.595Z,54.60
2023-01-11T14:44:30.901Z,54.66
2023-01-11T14:47:48.451Z,54.65
2023-01-11T14:51:02.391Z,54.70
2023-01-11T14:54:16.664Z,54.60
2023-01-11T14:57:45.592Z,54.46
2023-01-11T15:01:00.043Z,54.60
2023-01-11T15:04:09.743Z,54.75
2023-01-11T15:07:15.975Z,54.67
2023-01-11T15:10:46.210Z,54.52
2023-01-11T15:14:03.271Z,54.50
2023-01-11T15:17:29.409Z,54.58
2023-01-11T15:20:35.988Z,54.68
2023-01-11T15:23:42.642Z,54.62
2023-01-11T15:26:47.514Z,54.60
2023-01-11T15:29:57.107Z,54.58
2023-01-11T15:33:03.998Z,54.42
2023-01-11T15:36:18.893Z,54.51
2023-01-11T15:39:24.146Z,54.55
2023-01-11T15:42:54.000Z,54.64
2023-01-11T15:46:28.955Z,54.58
2023-01-11T15:50:03.611Z,54.59
2023-01-11T15:53:20.733Z,54.49
2023-01-11T15:56:58.232Z,54.38
2023-01-11T16:00:42.486Z,54.50
2023-01-11T16:04:06.407Z,54.61
2023-01-11T16:07:20.117Z,54.51
2023-01-11T16:10:50.312Z,54.54
2023-01-11T16:14:12.523Z,54.57
2023-01-11T16:17:22.080Z,54.50
2023-01-11T16:20:39.596Z,54.49
2023-01-11T16:23:46.868Z,54.65
2023-01-11T16:26:54.491Z,54.68
2023-01-11T16:30:03.112Z,54.77
2023-01-11T16:33:09.825Z,54.86
2023-01-11T16:36:31.878Z,54.91
2023-01-11T16:39:41.627Z,54.86
2023-01-11T16:42:49.544Z,54.94
2023-01-11T16:46:01.223Z,54.93
2023-01-11T16:49:12.079Z,55.04
2023-01-11T16:52:39.927Z,55.00
2023-01-11T16:55:51.753Z,55.03
2023-01-11T16:58:58.397Z,55.00
2023-01-11T17:02:12.829Z,54.90
2023-01-11T17:05:20.186Z,54.89
2023-01-11T17:08:47.871Z,54.75
2023-01-11T17:11:58.139Z,54.82
2023-01-11T17:15:17.306Z,54.86
2023-01-11T17:18:24.287Z,54.87
2023-01-11T17:21:41.656Z,54.87
2023-01-11T17:24:52.571Z,54.91
2023-01-11T17:28:05.196Z,54.91
2023-01-11T17:31:09.804Z,54.84
2023-01-11T17:34:21.704Z,54.84
2023-01-11T17:37:31.302Z,54.90
2023-01-11T17:40:44.353Z,55.02
2023-01-11T17:44:09.412Z,55.10
2023-01-11T17:47:16.355Z,55.17
2023-01-11T17:50:38.954Z,55.20
2023-01-11T17:53:49.045Z,55.24
2023-01-11T17:56:55.580Z,55.34
2023-01-11T18:00:02.141Z,55.38
2023-01-11T18:03:10.354Z,55.37
2023-01-11T18:06:31.052Z,55.31
2023-01-11T18:09:43.604Z,55.38
2023-01-11T18:12:49.854Z,55.28
2023-01-11T18:15:55.361Z,55.35
2023-01-11T18:19:03.608Z,55.39
2023-01-11T18:22:12.901Z,55.35
2023-01-11T18:25:35.107Z,55.33
2023-01-11T18:28:46.002Z,55.25
2023-01-11T18:31:52.561Z,55.28
2023-01-11T18:35:02.475Z,55.41
2023-01-11T18:38:08.803Z,55.39
2023-01-11T18:41:37.846Z,55.32
2023-01-11T18:44:44.569Z,55.30
2023-01-11T18:47:50.834Z,55.33
2023-01-11T18:50:58.829Z,55.27
2023-01-11T18:54:06.582Z,55.28
2023-01-11T18:57:12.277Z,55.25
2023-01-11T19:00:20.587Z,55.24
2023-01-11T19:03:25.915Z,55.35
2023-01-11T19:06:33.099Z,55.48
2023-01-11T19:09:39.955Z,55.48
2023-01-11T19:12:46.976Z,55.62
2023-01-11T19:15:52.746Z,55.75
2023-01-11T19:18:58.899Z,55.75
2023-01-11T19:22:07.583Z,55.75
2023-01-11T19:25:16.302Z,55.80
2023-01-11T19:28:22.815Z,55.82
2023-01-11T19:31:30.990Z,55.82
2023-01-11T19:34:39.834Z,55.85
2023-01-11T19:37:45.069Z,55.85
2023-01-11T19:40:50.718Z,55.99
2023-01-11T19:43:56.306Z,56.02
2023-01-11T19:47:11.481Z,55.92
2023-01-11T19:50:12.281Z,55.98
2023-01-11T19:53:17.782Z,56.05
2023-01-11T19:56:27.705Z,56.03
2023-01-11T19:59:38.035Z,56.06
2023-01-11T20:02:45.782Z,56.04
2023-01-11T20:05:53.628Z,56.17
2023-01-11T20:09:01.257Z,56.35
2023-01-11T20:12:08.432Z,56.39
2023-01-11T20:15:16.212Z,56.47
2023-01-11T20:18:22.995Z,56.41
2023-01-11T20:21:28.951Z,56.33
2023-01-11T20:24:38.103Z,56.32
2023-01-11T20:27:43.904Z,56.44
2023-01-11T20:30:55.003Z,56.49
2023-01-11T20:34:02.355Z,56.44
2023-01-11T20:37:10.475Z,56.48
2023-01-11T20:40:19.143Z,56.56
2023-01-11T20:43:27.263Z,56.54
2023-01-11T20:46:33.169Z,56.55
2023-01-11T20:49:39.532Z,56.54
2023-01-11T20:52:46.085Z,56.53
2023-01-11T20:55:53.636Z,56.50
2023-01-11T20:58:59.363Z,56.51
2023-01-11T21:02:06.085Z,56.67
2023-01-11T21:05:12.752Z,56.77
2023-01-11T21:08:19.137Z,56.83
2023-01-11T21:11:28.865Z,56.90
2023-01-11T21:14:37.447Z,57.02
2023-01-11T21:17:42.343Z,57.08
2023-01-11T21:20:51.761Z,57.19
2023-01-11T21:24:00.501Z,57.01
2023-01-11T21:27:06.756Z,56.84
2023-01-11T21:30:14.458Z,56.89
2023-01-11T21:33:20.437Z,57.02
2023-01-11T21:36:27.864Z,57.15
2023-01-11T21:39:33.733Z,57.15
2023-01-11T21:42:40.232Z,57.31
2023-01-11T21:45:46.557Z,57.38
2023-01-11T21:48:53.645Z,57.33
2023-01-11T21:51:59.886Z,57.34
2023-01-11T21:55:08.074Z,57.35
2023-01-11T21:58:13.853Z,57.34
2023-01-11T22:01:30.083Z,57.43
2023-01-11T22:04:36.280Z,57.39
2023-01-11T22:07:45.317Z,57.44
2023-01-11T22:10:51.059Z,57.47
2023-01-11T22:13:58.503Z,57.50
2023-01-11T22:17:05.156Z,57.51
2023-01-11T22:20:11.237Z,57.55
2023-01-11T22:23:17.452Z,57.65
2023-01-11T22:26:29.245Z,57.72
2023-01-11T22:29:35.455Z,57.80
2023-01-11T22:32:45.316Z,57.83
2023-01-11T22:35:51.271Z,57.61
2023-01-11T22:38:57.919Z,57.61
2023-01-11T22:42:03.853Z,57.64
2023-01-11T22:45:11.907Z,57.84
2023-01-11T22:48:18.805Z,57.85
2023-01-11T22:51:25.309Z,57.84
2023-01-11T22:54:32.114Z,57.92
2023-01-11T22:57:38.983Z,57.88
2023-01-11T23:00:45.052Z,58.02
2023-01-11T23:03:53.527Z,58.01
2023-01-11T23:06:58.798Z,58.04
2023-01-11T23:10:05.855Z,58.06
2023-01-11T23:13:28.738Z,58.13
2023-01-11T23:16:38.035Z,58.00
2023-01-11T23:19:44.806Z,57.89
2023-01-11T23:22:52.146Z,58.04
2023-01-11T23:25:58.789Z,58.22
2023-01-11T23:29:05.106Z,58.17
2023-01-11T23:32:10.854Z,58.29
2023-01-11T23:35:17.781Z,58.25
2023-01-11T23:38:23.272Z,58.29
2023-01-11T23:41:49.086Z,58.40
2023-01-11T23:44:54.224Z,58.44
2023-01-11T23:48:01.756Z,58.62
2023-01-11T23:51:07.777Z,58.58
2023-01-11T23:54:14.626Z,58.45
2023-01-11T23:57:21.299Z,58.50
